RYR8LV EIDW-LKPR
Flight info
| Callsign | RYR8LV |
|---|---|
| Flight time | 1h 59m |
| Altitude | 39000 |
| Route | ENDEQ1E ENDEQ Q36 ALAVA Z195 MALUD UL975 WAL M16 DOLAS DCT NAVPI DCT EKSAK DCT SWALM DCT GASKA DCT TONSU Z35 ODOMO DCT LOMKI |
| Aircraft | B738/M-SDE3FGILRWY/SB1 |
Departure
| Time | 2026-05-06 17:55 |
|---|---|
| Airport | Dublin Airport (EIDW) |
Arrival
| Time | 2026-05-06 19:54 |
|---|---|
| Airport | Václav Havel Airport Prague (LKPR) |
| Time | Latitude | Longitude | Altitude | Speed | Heading |
|---|---|---|---|---|---|
| 2026-05-06 17:29 | 53.43050 | -6.25183 | 210 ft | 0 kts | 66° |
| 2026-05-06 17:44 | 53.43043 | -6.25209 | 237 ft | 4 kts | 66° |
| 2026-05-06 17:45 | 53.43032 | -6.25251 | 210 ft | 4 kts | 67° |
| 2026-05-06 17:45 | 53.43022 | -6.25292 | 213 ft | 4 kts | 69° |
| 2026-05-06 17:45 | 53.43013 | -6.25334 | 213 ft | 4 kts | 76° |
| 2026-05-06 17:45 | 53.43010 | -6.25378 | 210 ft | 4 kts | 103° |
| 2026-05-06 17:46 | 53.43021 | -6.25407 | 213 ft | 4 kts | 147° |
| 2026-05-06 17:46 | 53.43032 | -6.25416 | 210 ft | 1 kts | 156° |
| 2026-05-06 17:48 | 53.43000 | -6.25392 | 210 ft | 9 kts | 157° |
| 2026-05-06 17:48 | 53.42938 | -6.25349 | 215 ft | 10 kts | 157° |
| 2026-05-06 17:48 | 53.42876 | -6.25304 | 215 ft | 11 kts | 157° |
| 2026-05-06 17:48 | 53.42796 | -6.25273 | 219 ft | 12 kts | 197° |
| 2026-05-06 17:49 | 53.42730 | -6.25365 | 211 ft | 12 kts | 225° |
| 2026-05-06 17:49 | 53.42670 | -6.25468 | 211 ft | 13 kts | 226° |
| 2026-05-06 17:49 | 53.42599 | -6.25590 | 212 ft | 15 kts | 226° |
| 2026-05-06 17:49 | 53.42523 | -6.25722 | 214 ft | 16 kts | 225° |
| 2026-05-06 17:50 | 53.42448 | -6.25849 | 210 ft | 15 kts | 225° |
| 2026-05-06 17:50 | 53.42409 | -6.25912 | 210 ft | 5 kts | 222° |
| 2026-05-06 17:50 | 53.42384 | -6.25957 | 210 ft | 5 kts | 230° |
| 2026-05-06 17:50 | 53.42360 | -6.26002 | 214 ft | 5 kts | 226° |
| 2026-05-06 17:51 | 53.42330 | -6.26054 | 210 ft | 10 kts | 225° |
| 2026-05-06 17:51 | 53.42274 | -6.26197 | 217 ft | 18 kts | 252° |
| 2026-05-06 17:51 | 53.42274 | -6.26412 | 213 ft | 18 kts | 276° |
| 2026-05-06 17:51 | 53.42285 | -6.26622 | 210 ft | 18 kts | 275° |
| 2026-05-06 17:52 | 53.42298 | -6.26850 | 210 ft | 23 kts | 275° |
| 2026-05-06 17:52 | 53.42315 | -6.27148 | 212 ft | 27 kts | 275° |
| 2026-05-06 17:52 | 53.42331 | -6.27458 | 210 ft | 26 kts | 275° |
| 2026-05-06 17:52 | 53.42347 | -6.27748 | 213 ft | 24 kts | 275° |
| 2026-05-06 17:53 | 53.42361 | -6.28015 | 210 ft | 21 kts | 275° |
| 2026-05-06 17:53 | 53.42371 | -6.28247 | 210 ft | 16 kts | 261° |
| 2026-05-06 17:53 | 53.42285 | -6.28306 | 220 ft | 16 kts | 150° |
| 2026-05-06 17:53 | 53.42206 | -6.28189 | 211 ft | 15 kts | 130° |
| 2026-05-06 17:54 | 53.42186 | -6.28006 | 211 ft | 20 kts | 95° |
| 2026-05-06 17:54 | 53.42157 | -6.27539 | 209 ft | 74 kts | 95° |
| 2026-05-06 17:54 | 53.42095 | -6.26307 | 210 ft | 138 kts | 95° |
| 2026-05-06 17:54 | 53.41987 | -6.24526 | 623 ft | 159 kts | 97° |
| 2026-05-06 17:55 | 53.41871 | -6.22645 | 1346 ft | 166 kts | 98° |
| 2026-05-06 17:55 | 53.41721 | -6.20681 | 2098 ft | 175 kts | 98° |
| 2026-05-06 17:55 | 53.41611 | -6.18446 | 2513 ft | 207 kts | 96° |
| 2026-05-06 17:55 | 53.41499 | -6.15968 | 3102 ft | 217 kts | 96° |
| 2026-05-06 17:56 | 53.41370 | -6.13394 | 3798 ft | 225 kts | 96° |
| 2026-05-06 17:56 | 53.41227 | -6.10716 | 4403 ft | 243 kts | 96° |
| 2026-05-06 17:56 | 53.41061 | -6.07735 | 4839 ft | 267 kts | 96° |
| 2026-05-06 17:56 | 53.40894 | -6.04583 | 5674 ft | 275 kts | 93° |
| 2026-05-06 17:57 | 53.40994 | -6.01362 | 6591 ft | 279 kts | 84° |
| 2026-05-06 17:57 | 53.41249 | -5.98110 | 7465 ft | 284 kts | 82° |
| 2026-05-06 17:57 | 53.41522 | -5.94815 | 8342 ft | 288 kts | 82° |
| 2026-05-06 17:57 | 53.41782 | -5.91462 | 9223 ft | 293 kts | 83° |
| 2026-05-06 17:58 | 53.42026 | -5.88046 | 10087 ft | 297 kts | 83° |
| 2026-05-06 17:58 | 53.42267 | -5.84516 | 10547 ft | 317 kts | 83° |
| 2026-05-06 17:58 | 53.42523 | -5.80707 | 10852 ft | 338 kts | 83° |
| 2026-05-06 17:58 | 53.42794 | -5.76728 | 11526 ft | 346 kts | 83° |
| 2026-05-06 17:59 | 53.42982 | -5.72681 | 12321 ft | 351 kts | 89° |
| 2026-05-06 17:59 | 53.42994 | -5.68568 | 13123 ft | 356 kts | 91° |
| 2026-05-06 17:59 | 53.42941 | -5.64393 | 13879 ft | 361 kts | 92° |
| 2026-05-06 17:59 | 53.42872 | -5.60157 | 14602 ft | 365 kts | 92° |
| 2026-05-06 18:00 | 53.42806 | -5.55884 | 15362 ft | 368 kts | 91° |
| 2026-05-06 18:00 | 53.42748 | -5.51573 | 16105 ft | 371 kts | 91° |
| 2026-05-06 18:00 | 53.42696 | -5.47227 | 16835 ft | 375 kts | 91° |
| 2026-05-06 18:00 | 53.42649 | -5.42836 | 17546 ft | 379 kts | 91° |
| 2026-05-06 18:01 | 53.42604 | -5.38397 | 18264 ft | 383 kts | 91° |
| 2026-05-06 18:01 | 53.42560 | -5.33920 | 18907 ft | 385 kts | 91° |
| 2026-05-06 18:01 | 53.42515 | -5.29411 | 19567 ft | 388 kts | 91° |
| 2026-05-06 18:01 | 53.42470 | -5.24887 | 20219 ft | 390 kts | 90° |
| 2026-05-06 18:02 | 53.42423 | -5.20320 | 20858 ft | 393 kts | 90° |
| 2026-05-06 18:02 | 53.42373 | -5.15725 | 21460 ft | 396 kts | 90° |
| 2026-05-06 18:02 | 53.42322 | -5.11092 | 22063 ft | 399 kts | 90° |
| 2026-05-06 18:02 | 53.42268 | -5.06419 | 22655 ft | 402 kts | 90° |
| 2026-05-06 18:03 | 53.42213 | -5.01717 | 23234 ft | 405 kts | 90° |
| 2026-05-06 18:03 | 53.42154 | -4.96972 | 23771 ft | 408 kts | 90° |
| 2026-05-06 18:03 | 53.42094 | -4.92202 | 24237 ft | 411 kts | 90° |
| 2026-05-06 18:03 | 53.42031 | -4.87394 | 24710 ft | 414 kts | 90° |
| 2026-05-06 18:04 | 53.41966 | -4.82551 | 25173 ft | 416 kts | 90° |
| 2026-05-06 18:04 | 53.41898 | -4.77674 | 25635 ft | 419 kts | 90° |
| 2026-05-06 18:04 | 53.41828 | -4.72781 | 26083 ft | 422 kts | 90° |
| 2026-05-06 18:04 | 53.41755 | -4.67852 | 26524 ft | 424 kts | 90° |
| 2026-05-06 18:05 | 53.41680 | -4.62899 | 26960 ft | 427 kts | 90° |
| 2026-05-06 18:05 | 53.41604 | -4.57973 | 27384 ft | 429 kts | 90° |
| 2026-05-06 18:05 | 53.41522 | -4.52897 | 27810 ft | 432 kts | 90° |
| 2026-05-06 18:05 | 53.41440 | -4.47849 | 28235 ft | 434 kts | 90° |
| 2026-05-06 18:06 | 53.41354 | -4.42784 | 28658 ft | 436 kts | 90° |
| 2026-05-06 18:06 | 53.41267 | -4.37699 | 29055 ft | 438 kts | 89° |
| 2026-05-06 18:06 | 53.41176 | -4.32572 | 29454 ft | 441 kts | 89° |
| 2026-05-06 18:06 | 53.41083 | -4.27429 | 29853 ft | 443 kts | 89° |
| 2026-05-06 18:07 | 53.40989 | -4.22329 | 30194 ft | 445 kts | 89° |
| 2026-05-06 18:07 | 53.40889 | -4.17069 | 30516 ft | 446 kts | 89° |
| 2026-05-06 18:07 | 53.40789 | -4.11933 | 30820 ft | 448 kts | 89° |
| 2026-05-06 18:07 | 53.40685 | -4.06706 | 31116 ft | 450 kts | 89° |
| 2026-05-06 18:08 | 53.40579 | -4.01459 | 31411 ft | 451 kts | 89° |
| 2026-05-06 18:08 | 53.40470 | -3.96194 | 31678 ft | 453 kts | 89° |
| 2026-05-06 18:08 | 53.40358 | -3.90917 | 32003 ft | 454 kts | 89° |
| 2026-05-06 18:08 | 53.40244 | -3.85639 | 32412 ft | 452 kts | 89° |
| 2026-05-06 18:09 | 53.40127 | -3.80384 | 32832 ft | 450 kts | 89° |
| 2026-05-06 18:09 | 53.40009 | -3.75141 | 33199 ft | 449 kts | 89° |
| 2026-05-06 18:09 | 53.39889 | -3.69927 | 33522 ft | 449 kts | 89° |
| 2026-05-06 18:09 | 53.39767 | -3.64697 | 33862 ft | 449 kts | 89° |
| 2026-05-06 18:10 | 53.39643 | -3.59468 | 34167 ft | 449 kts | 89° |
| 2026-05-06 18:10 | 53.39516 | -3.54244 | 34414 ft | 449 kts | 90° |
| 2026-05-06 18:10 | 53.39387 | -3.48999 | 34609 ft | 451 kts | 90° |
| 2026-05-06 18:10 | 53.39257 | -3.43812 | 34825 ft | 452 kts | 90° |
| 2026-05-06 18:11 | 53.39121 | -3.38481 | 35070 ft | 453 kts | 90° |
| 2026-05-06 18:11 | 53.39030 | -3.34992 | 35231 ft | 453 kts | 90° |
| 2026-05-06 18:11 | 53.38844 | -3.27936 | 35531 ft | 454 kts | 90° |
| 2026-05-06 18:11 | 53.38702 | -3.22653 | 35742 ft | 455 kts | 91° |
| 2026-05-06 18:12 | 53.38557 | -3.17346 | 35965 ft | 456 kts | 91° |
| 2026-05-06 18:12 | 53.38410 | -3.12041 | 36176 ft | 456 kts | 91° |
| 2026-05-06 18:12 | 53.38262 | -3.06794 | 36386 ft | 457 kts | 91° |
| 2026-05-06 18:12 | 53.38110 | -3.01478 | 36617 ft | 457 kts | 91° |
| 2026-05-06 18:13 | 53.37954 | -2.96147 | 36830 ft | 458 kts | 91° |
| 2026-05-06 18:13 | 53.37797 | -2.90814 | 37013 ft | 459 kts | 92° |
| 2026-05-06 18:13 | 53.37637 | -2.85471 | 37218 ft | 460 kts | 92° |
| 2026-05-06 18:13 | 53.37474 | -2.80131 | 37422 ft | 460 kts | 92° |
| 2026-05-06 18:14 | 53.37309 | -2.74771 | 37634 ft | 460 kts | 92° |
| 2026-05-06 18:14 | 53.37141 | -2.69415 | 37814 ft | 461 kts | 92° |
| 2026-05-06 18:14 | 53.36970 | -2.64053 | 37996 ft | 462 kts | 92° |
| 2026-05-06 18:14 | 53.36797 | -2.58681 | 38197 ft | 462 kts | 92° |
| 2026-05-06 18:15 | 53.36624 | -2.53379 | 38389 ft | 462 kts | 92° |
| 2026-05-06 18:15 | 53.36446 | -2.48003 | 38550 ft | 463 kts | 92° |
| 2026-05-06 18:15 | 53.36265 | -2.42625 | 38723 ft | 463 kts | 93° |
| 2026-05-06 18:15 | 53.36084 | -2.37247 | 38869 ft | 463 kts | 93° |
| 2026-05-06 18:16 | 53.35898 | -2.31857 | 38984 ft | 463 kts | 93° |
| 2026-05-06 18:16 | 53.35704 | -2.26470 | 39009 ft | 463 kts | 94° |
| 2026-05-06 18:16 | 53.34766 | -2.15807 | 39026 ft | 463 kts | 100° |
| 2026-05-06 18:17 | 53.33580 | -2.05189 | 39029 ft | 464 kts | 100° |
| 2026-05-06 18:17 | 53.32427 | -1.94536 | 39031 ft | 466 kts | 100° |
| 2026-05-06 18:18 | 53.31304 | -1.83862 | 39033 ft | 466 kts | 100° |
| 2026-05-06 18:18 | 53.30177 | -1.73180 | 39036 ft | 467 kts | 100° |
| 2026-05-06 18:19 | 53.29229 | -1.64298 | 39039 ft | 467 kts | 100° |
| 2026-05-06 18:19 | 53.27890 | -1.51869 | 39039 ft | 467 kts | 100° |
| 2026-05-06 18:20 | 53.26929 | -1.43008 | 39041 ft | 466 kts | 100° |
| 2026-05-06 18:20 | 53.25765 | -1.32349 | 39042 ft | 466 kts | 100° |
| 2026-05-06 18:21 | 53.24595 | -1.21723 | 39046 ft | 465 kts | 101° |
| 2026-05-06 18:21 | 53.23417 | -1.11118 | 39050 ft | 464 kts | 101° |
| 2026-05-06 18:22 | 53.22230 | -1.00523 | 39049 ft | 464 kts | 101° |
| 2026-05-06 18:22 | 53.21038 | -0.89955 | 39051 ft | 464 kts | 101° |
| 2026-05-06 18:23 | 53.19835 | -0.79389 | 39051 ft | 463 kts | 101° |
| 2026-05-06 18:23 | 53.18624 | -0.68840 | 39050 ft | 463 kts | 101° |
| 2026-05-06 18:24 | 53.17406 | -0.58310 | 39047 ft | 463 kts | 101° |
| 2026-05-06 18:24 | 53.16180 | -0.47776 | 39051 ft | 463 kts | 101° |
| 2026-05-06 18:25 | 53.14953 | -0.37324 | 39050 ft | 463 kts | 101° |
| 2026-05-06 18:25 | 53.13699 | -0.26733 | 39050 ft | 463 kts | 101° |
| 2026-05-06 18:26 | 53.12453 | -0.16285 | 39050 ft | 463 kts | 102° |
| 2026-05-06 18:26 | 53.11189 | -0.05782 | 39050 ft | 463 kts | 102° |
| 2026-05-06 18:27 | 53.09917 | 0.04718 | 39049 ft | 463 kts | 102° |
| 2026-05-06 18:27 | 53.08636 | 0.15205 | 39044 ft | 463 kts | 102° |
| 2026-05-06 18:28 | 53.07344 | 0.25694 | 39039 ft | 463 kts | 102° |
| 2026-05-06 18:28 | 53.06045 | 0.36167 | 39034 ft | 463 kts | 102° |
| 2026-05-06 18:29 | 53.04736 | 0.46639 | 39027 ft | 463 kts | 102° |
| 2026-05-06 18:29 | 53.03417 | 0.57108 | 39027 ft | 463 kts | 102° |
| 2026-05-06 18:30 | 53.02090 | 0.67566 | 39026 ft | 463 kts | 102° |
| 2026-05-06 18:30 | 53.00753 | 0.78030 | 39016 ft | 463 kts | 102° |
| 2026-05-06 18:31 | 52.99406 | 0.88497 | 39024 ft | 463 kts | 103° |
| 2026-05-06 18:31 | 52.98046 | 0.98945 | 39019 ft | 463 kts | 104° |
| 2026-05-06 18:32 | 52.96051 | 1.09016 | 39023 ft | 462 kts | 112° |
| 2026-05-06 18:32 | 52.93717 | 1.18960 | 39022 ft | 462 kts | 112° |
| 2026-05-06 18:33 | 52.91388 | 1.28904 | 39009 ft | 463 kts | 112° |
| 2026-05-06 18:33 | 52.89093 | 1.38864 | 39019 ft | 463 kts | 112° |
| 2026-05-06 18:34 | 52.86806 | 1.48836 | 39016 ft | 463 kts | 112° |
| 2026-05-06 18:34 | 52.84512 | 1.58797 | 39017 ft | 463 kts | 112° |
| 2026-05-06 18:35 | 52.82210 | 1.68742 | 39013 ft | 463 kts | 112° |
| 2026-05-06 18:35 | 52.79899 | 1.78672 | 39006 ft | 462 kts | 112° |
| 2026-05-06 18:36 | 52.77583 | 1.88579 | 39002 ft | 462 kts | 112° |
| 2026-05-06 18:36 | 52.75260 | 1.98466 | 38996 ft | 462 kts | 112° |
| 2026-05-06 18:37 | 52.72934 | 2.08323 | 38999 ft | 461 kts | 112° |
| 2026-05-06 18:37 | 52.70595 | 2.18190 | 38995 ft | 461 kts | 112° |
| 2026-05-06 18:38 | 52.68254 | 2.28020 | 38986 ft | 461 kts | 113° |
| 2026-05-06 18:38 | 52.65919 | 2.37781 | 38990 ft | 461 kts | 113° |
| 2026-05-06 18:39 | 52.63563 | 2.47588 | 38986 ft | 461 kts | 113° |
| 2026-05-06 18:40 | 52.60013 | 2.62280 | 38985 ft | 460 kts | 113° |
| 2026-05-06 18:40 | 52.57640 | 2.72049 | 38985 ft | 460 kts | 114° |
| 2026-05-06 18:41 | 52.55256 | 2.81827 | 38982 ft | 460 kts | 113° |
| 2026-05-06 18:41 | 52.52908 | 2.91600 | 38977 ft | 460 kts | 112° |
| 2026-05-06 18:42 | 52.50617 | 3.01417 | 38978 ft | 461 kts | 112° |
| 2026-05-06 18:42 | 52.48321 | 3.11230 | 38973 ft | 461 kts | 112° |
| 2026-05-06 18:43 | 52.46007 | 3.21038 | 38972 ft | 461 kts | 113° |
| 2026-05-06 18:43 | 52.43679 | 3.30837 | 38974 ft | 462 kts | 113° |
| 2026-05-06 18:44 | 52.41352 | 3.40579 | 38973 ft | 462 kts | 113° |
| 2026-05-06 18:44 | 52.39001 | 3.50378 | 38969 ft | 463 kts | 113° |
| 2026-05-06 18:45 | 52.36636 | 3.60193 | 38966 ft | 463 kts | 113° |
| 2026-05-06 18:45 | 52.34267 | 3.69980 | 38964 ft | 464 kts | 114° |
| 2026-05-06 18:46 | 52.31883 | 3.79785 | 38957 ft | 464 kts | 113° |
| 2026-05-06 18:46 | 52.29490 | 3.89584 | 38956 ft | 464 kts | 114° |
| 2026-05-06 18:47 | 52.27093 | 3.99357 | 38952 ft | 464 kts | 114° |
| 2026-05-06 18:47 | 52.25887 | 4.04257 | 38948 ft | 464 kts | 114° |
| 2026-05-06 18:48 | 52.23475 | 4.14028 | 38945 ft | 464 kts | 114° |
| 2026-05-06 18:48 | 52.21056 | 4.23780 | 38942 ft | 463 kts | 114° |
| 2026-05-06 18:49 | 52.18678 | 4.33323 | 38941 ft | 463 kts | 114° |
| 2026-05-06 18:49 | 52.16254 | 4.43013 | 38936 ft | 462 kts | 114° |
| 2026-05-06 18:50 | 52.13824 | 4.52683 | 38934 ft | 461 kts | 114° |
| 2026-05-06 18:50 | 52.11393 | 4.62314 | 38934 ft | 460 kts | 114° |
| 2026-05-06 18:51 | 52.09756 | 4.68777 | 38932 ft | 459 kts | 114° |
| 2026-05-06 18:51 | 52.08416 | 4.74052 | 38933 ft | 459 kts | 114° |
| 2026-05-06 18:52 | 52.05977 | 4.83624 | 38932 ft | 458 kts | 114° |
| 2026-05-06 18:52 | 52.03535 | 4.93168 | 38927 ft | 457 kts | 114° |
| 2026-05-06 18:53 | 52.01630 | 5.00584 | 38924 ft | 457 kts | 114° |
| 2026-05-06 18:53 | 51.99179 | 5.10089 | 38924 ft | 457 kts | 114° |
| 2026-05-06 18:54 | 51.96736 | 5.19527 | 38923 ft | 457 kts | 114° |
| 2026-05-06 18:54 | 51.94271 | 5.29006 | 38924 ft | 457 kts | 115° |
| 2026-05-06 18:55 | 51.91795 | 5.38489 | 38921 ft | 457 kts | 115° |
| 2026-05-06 18:55 | 51.89310 | 5.47967 | 38922 ft | 457 kts | 115° |
| 2026-05-06 18:56 | 51.86820 | 5.57425 | 38918 ft | 457 kts | 115° |
| 2026-05-06 18:56 | 51.84321 | 5.66880 | 38919 ft | 457 kts | 115° |
| 2026-05-06 18:57 | 51.81811 | 5.76335 | 38915 ft | 457 kts | 115° |
| 2026-05-06 18:57 | 51.79294 | 5.85777 | 38918 ft | 457 kts | 115° |
| 2026-05-06 18:58 | 51.76773 | 5.95194 | 38916 ft | 457 kts | 115° |
| 2026-05-06 18:58 | 51.74242 | 6.04614 | 38911 ft | 457 kts | 115° |
| 2026-05-06 18:59 | 51.71707 | 6.14008 | 38911 ft | 457 kts | 115° |
| 2026-05-06 18:59 | 51.69160 | 6.23406 | 38913 ft | 457 kts | 116° |
| 2026-05-06 19:00 | 51.66611 | 6.32776 | 38911 ft | 456 kts | 116° |
| 2026-05-06 19:00 | 51.64056 | 6.42131 | 38906 ft | 456 kts | 116° |
| 2026-05-06 19:01 | 51.61494 | 6.51470 | 38912 ft | 456 kts | 116° |
| 2026-05-06 19:01 | 51.60175 | 6.56264 | 38909 ft | 456 kts | 116° |
| 2026-05-06 19:02 | 51.58270 | 6.63172 | 38913 ft | 456 kts | 116° |
| 2026-05-06 19:02 | 51.55675 | 6.72547 | 38908 ft | 456 kts | 116° |
| 2026-05-06 19:03 | 51.53089 | 6.81853 | 38909 ft | 456 kts | 116° |
| 2026-05-06 19:03 | 51.50513 | 6.91088 | 38906 ft | 456 kts | 116° |
| 2026-05-06 19:04 | 51.47913 | 7.00372 | 38905 ft | 456 kts | 116° |
| 2026-05-06 19:04 | 51.45308 | 7.09638 | 38904 ft | 456 kts | 116° |
| 2026-05-06 19:05 | 51.42689 | 7.18914 | 38892 ft | 456 kts | 116° |
| 2026-05-06 19:05 | 51.40065 | 7.28174 | 38886 ft | 457 kts | 117° |
| 2026-05-06 19:06 | 51.37433 | 7.37424 | 38885 ft | 456 kts | 117° |
| 2026-05-06 19:06 | 51.34794 | 7.46661 | 38888 ft | 456 kts | 117° |
| 2026-05-06 19:07 | 51.32935 | 7.53149 | 38883 ft | 456 kts | 117° |
| 2026-05-06 19:07 | 51.31103 | 7.59521 | 38881 ft | 456 kts | 117° |
| 2026-05-06 19:08 | 51.28449 | 7.68730 | 38878 ft | 456 kts | 117° |
| 2026-05-06 19:08 | 51.26238 | 7.76373 | 38887 ft | 456 kts | 117° |
| 2026-05-06 19:09 | 51.23569 | 7.85563 | 38878 ft | 456 kts | 117° |
| 2026-05-06 19:09 | 51.20893 | 7.94744 | 38858 ft | 456 kts | 117° |
| 2026-05-06 19:10 | 51.18211 | 8.03911 | 38859 ft | 457 kts | 117° |
| 2026-05-06 19:10 | 51.15516 | 8.13089 | 38858 ft | 457 kts | 118° |
| 2026-05-06 19:11 | 51.12818 | 8.22241 | 38850 ft | 457 kts | 118° |
| 2026-05-06 19:11 | 51.10112 | 8.31384 | 38851 ft | 457 kts | 118° |
| 2026-05-06 19:12 | 51.07400 | 8.40515 | 38845 ft | 456 kts | 118° |
| 2026-05-06 19:12 | 51.05169 | 8.48005 | 38842 ft | 457 kts | 118° |
| 2026-05-06 19:13 | 51.02439 | 8.57127 | 38835 ft | 456 kts | 119° |
| 2026-05-06 19:13 | 50.98999 | 8.65468 | 38841 ft | 450 kts | 131° |
| 2026-05-06 19:14 | 50.95110 | 8.73255 | 38832 ft | 450 kts | 131° |
| 2026-05-06 19:14 | 50.91229 | 8.81052 | 38822 ft | 451 kts | 131° |
| 2026-05-06 19:15 | 50.87372 | 8.88885 | 38827 ft | 451 kts | 131° |
| 2026-05-06 19:15 | 50.83521 | 8.96716 | 38820 ft | 451 kts | 131° |
| 2026-05-06 19:16 | 50.79667 | 9.04529 | 38815 ft | 451 kts | 131° |
| 2026-05-06 19:16 | 50.75804 | 9.12335 | 38818 ft | 451 kts | 131° |
| 2026-05-06 19:17 | 50.71954 | 9.20147 | 38812 ft | 451 kts | 128° |
| 2026-05-06 19:17 | 50.68831 | 9.28788 | 38812 ft | 454 kts | 121° |
| 2026-05-06 19:18 | 50.65982 | 9.37517 | 38807 ft | 454 kts | 121° |
| 2026-05-06 19:18 | 50.63438 | 9.45233 | 38807 ft | 454 kts | 121° |
| 2026-05-06 19:19 | 50.61807 | 9.50115 | 38800 ft | 453 kts | 121° |
| 2026-05-06 19:19 | 50.58859 | 9.58865 | 38802 ft | 453 kts | 121° |
| 2026-05-06 19:20 | 50.55901 | 9.67591 | 38796 ft | 452 kts | 121° |
| 2026-05-06 19:20 | 50.52933 | 9.76320 | 38804 ft | 451 kts | 121° |
| 2026-05-06 19:21 | 50.49974 | 9.84998 | 38797 ft | 450 kts | 121° |
| 2026-05-06 19:21 | 50.47014 | 9.93650 | 38797 ft | 449 kts | 122° |
| 2026-05-06 19:22 | 50.44071 | 10.02223 | 38789 ft | 448 kts | 122° |
| 2026-05-06 19:22 | 50.41113 | 10.10810 | 38791 ft | 447 kts | 122° |
| 2026-05-06 19:23 | 50.38153 | 10.19380 | 38787 ft | 446 kts | 122° |
| 2026-05-06 19:23 | 50.35191 | 10.27915 | 38798 ft | 446 kts | 123° |
| 2026-05-06 19:24 | 50.32854 | 10.34080 | 38790 ft | 444 kts | 125° |
| 2026-05-06 19:24 | 50.29555 | 10.42249 | 38795 ft | 444 kts | 126° |
| 2026-05-06 19:25 | 50.26692 | 10.50840 | 38800 ft | 451 kts | 110° |
| 2026-05-06 19:25 | 50.25052 | 10.60333 | 38797 ft | 453 kts | 107° |
| 2026-05-06 19:26 | 50.23479 | 10.69886 | 38789 ft | 455 kts | 108° |
| 2026-05-06 19:26 | 50.21857 | 10.79447 | 38794 ft | 456 kts | 108° |
| 2026-05-06 19:26 | 50.21025 | 10.84247 | 38532 ft | 462 kts | 108° |
| 2026-05-06 19:27 | 50.20181 | 10.89082 | 38046 ft | 462 kts | 109° |
| 2026-05-06 19:27 | 50.19337 | 10.93900 | 37543 ft | 458 kts | 109° |
| 2026-05-06 19:27 | 50.18500 | 10.98669 | 37138 ft | 453 kts | 109° |
| 2026-05-06 19:27 | 50.17670 | 11.03380 | 36742 ft | 448 kts | 110° |
| 2026-05-06 19:28 | 50.16846 | 11.08046 | 36326 ft | 444 kts | 110° |
| 2026-05-06 19:28 | 50.16030 | 11.12658 | 35949 ft | 439 kts | 110° |
| 2026-05-06 19:28 | 50.15219 | 11.17223 | 35550 ft | 436 kts | 110° |
| 2026-05-06 19:28 | 50.14412 | 11.21756 | 35151 ft | 433 kts | 111° |
| 2026-05-06 19:29 | 50.13609 | 11.26256 | 34757 ft | 430 kts | 111° |
| 2026-05-06 19:29 | 50.12808 | 11.30734 | 34364 ft | 427 kts | 111° |
| 2026-05-06 19:29 | 50.12011 | 11.35173 | 33981 ft | 424 kts | 112° |
| 2026-05-06 19:29 | 50.11216 | 11.39594 | 33531 ft | 423 kts | 112° |
| 2026-05-06 19:30 | 50.10422 | 11.43996 | 33100 ft | 420 kts | 112° |
| 2026-05-06 19:30 | 50.09634 | 11.48352 | 32706 ft | 417 kts | 112° |
| 2026-05-06 19:30 | 50.08853 | 11.52672 | 32321 ft | 413 kts | 112° |
| 2026-05-06 19:30 | 50.08076 | 11.56952 | 31946 ft | 409 kts | 112° |
| 2026-05-06 19:31 | 50.07303 | 11.61201 | 31564 ft | 406 kts | 112° |
| 2026-05-06 19:31 | 50.06536 | 11.65408 | 31201 ft | 403 kts | 112° |
| 2026-05-06 19:31 | 50.05013 | 11.73726 | 30476 ft | 396 kts | 112° |
| 2026-05-06 19:32 | 50.04269 | 11.77777 | 30118 ft | 393 kts | 112° |
| 2026-05-06 19:32 | 50.03518 | 11.81857 | 29743 ft | 390 kts | 112° |
| 2026-05-06 19:32 | 50.02765 | 11.85941 | 29335 ft | 386 kts | 112° |
| 2026-05-06 19:32 | 50.02029 | 11.89929 | 28949 ft | 382 kts | 112° |
| 2026-05-06 19:33 | 50.01306 | 11.93827 | 28620 ft | 377 kts | 112° |
| 2026-05-06 19:33 | 50.00572 | 11.97782 | 28131 ft | 377 kts | 112° |
| 2026-05-06 19:33 | 49.99837 | 12.01720 | 27567 ft | 379 kts | 111° |
| 2026-05-06 19:33 | 49.99103 | 12.05649 | 27100 ft | 378 kts | 111° |
| 2026-05-06 19:34 | 49.98374 | 12.09554 | 26708 ft | 375 kts | 111° |
| 2026-05-06 19:34 | 49.97658 | 12.13386 | 26344 ft | 373 kts | 111° |
| 2026-05-06 19:34 | 49.96926 | 12.17291 | 25945 ft | 371 kts | 111° |
| 2026-05-06 19:34 | 49.96421 | 12.19976 | 25670 ft | 370 kts | 111° |
| 2026-05-06 19:35 | 49.95703 | 12.23796 | 25280 ft | 368 kts | 111° |
| 2026-05-06 19:35 | 49.94984 | 12.27611 | 24911 ft | 366 kts | 110° |
| 2026-05-06 19:35 | 49.94269 | 12.31393 | 24543 ft | 365 kts | 110° |
| 2026-05-06 19:35 | 49.93675 | 12.35220 | 24172 ft | 366 kts | 102° |
| 2026-05-06 19:36 | 49.93471 | 12.39121 | 23830 ft | 367 kts | 96° |
| 2026-05-06 19:36 | 49.93367 | 12.43119 | 23493 ft | 365 kts | 95° |
| 2026-05-06 19:36 | 49.93284 | 12.47048 | 23114 ft | 363 kts | 95° |
| 2026-05-06 19:36 | 49.93199 | 12.50955 | 22728 ft | 361 kts | 95° |
| 2026-05-06 19:37 | 49.93106 | 12.54840 | 22356 ft | 359 kts | 95° |
| 2026-05-06 19:37 | 49.93007 | 12.58649 | 21998 ft | 356 kts | 95° |
| 2026-05-06 19:37 | 49.92902 | 12.62480 | 21625 ft | 354 kts | 95° |
| 2026-05-06 19:37 | 49.92828 | 12.65053 | 21379 ft | 353 kts | 95° |
| 2026-05-06 19:38 | 49.92680 | 12.70079 | 20908 ft | 350 kts | 95° |
| 2026-05-06 19:38 | 49.92567 | 12.73837 | 20548 ft | 349 kts | 95° |
| 2026-05-06 19:38 | 49.92453 | 12.77583 | 20219 ft | 346 kts | 95° |
| 2026-05-06 19:38 | 49.92339 | 12.81303 | 19883 ft | 344 kts | 95° |
| 2026-05-06 19:39 | 49.92223 | 12.85002 | 19547 ft | 342 kts | 95° |
| 2026-05-06 19:39 | 49.92170 | 12.86707 | 19392 ft | 341 kts | 95° |
| 2026-05-06 19:39 | 49.92053 | 12.90377 | 19080 ft | 339 kts | 95° |
| 2026-05-06 19:39 | 49.91937 | 12.94025 | 18747 ft | 337 kts | 95° |
| 2026-05-06 19:40 | 49.91820 | 12.97646 | 18433 ft | 336 kts | 95° |
| 2026-05-06 19:40 | 49.91703 | 13.01254 | 18114 ft | 333 kts | 95° |
| 2026-05-06 19:40 | 49.91585 | 13.04838 | 17760 ft | 332 kts | 95° |
| 2026-05-06 19:40 | 49.91487 | 13.08391 | 17404 ft | 331 kts | 90° |
| 2026-05-06 19:41 | 49.91964 | 13.11899 | 17016 ft | 333 kts | 70° |
| 2026-05-06 19:41 | 49.92617 | 13.14222 | 16794 ft | 332 kts | 66° |
| 2026-05-06 19:41 | 49.93617 | 13.17437 | 16460 ft | 330 kts | 65° |
| 2026-05-06 19:41 | 49.94633 | 13.20624 | 16100 ft | 329 kts | 65° |
| 2026-05-06 19:42 | 49.95652 | 13.23799 | 15774 ft | 327 kts | 65° |
| 2026-05-06 19:42 | 49.96669 | 13.26952 | 15427 ft | 326 kts | 65° |
| 2026-05-06 19:42 | 49.97684 | 13.30093 | 15102 ft | 324 kts | 65° |
| 2026-05-06 19:42 | 49.98693 | 13.33209 | 14778 ft | 320 kts | 64° |
| 2026-05-06 19:43 | 49.99689 | 13.36286 | 14291 ft | 318 kts | 65° |
| 2026-05-06 19:43 | 50.00685 | 13.39360 | 13774 ft | 318 kts | 64° |
| 2026-05-06 19:43 | 50.01677 | 13.42423 | 13270 ft | 316 kts | 65° |
| 2026-05-06 19:43 | 50.02660 | 13.45461 | 12765 ft | 313 kts | 65° |
| 2026-05-06 19:44 | 50.03635 | 13.48478 | 12277 ft | 311 kts | 64° |
| 2026-05-06 19:44 | 50.04600 | 13.51470 | 11755 ft | 309 kts | 64° |
| 2026-05-06 19:44 | 50.05723 | 13.54294 | 11270 ft | 307 kts | 50° |
| 2026-05-06 19:44 | 50.07178 | 13.56714 | 10804 ft | 305 kts | 45° |
| 2026-05-06 19:45 | 50.08672 | 13.59049 | 10332 ft | 303 kts | 45° |
| 2026-05-06 19:45 | 50.10162 | 13.61358 | 9865 ft | 301 kts | 45° |
| 2026-05-06 19:45 | 50.11644 | 13.63650 | 9390 ft | 299 kts | 45° |
| 2026-05-06 19:45 | 50.13048 | 13.65820 | 8944 ft | 296 kts | 45° |
| 2026-05-06 19:46 | 50.14479 | 13.68028 | 8488 ft | 293 kts | 45° |
| 2026-05-06 19:46 | 50.15684 | 13.70560 | 8009 ft | 290 kts | 62° |
| 2026-05-06 19:46 | 50.16615 | 13.73329 | 7589 ft | 286 kts | 64° |
| 2026-05-06 19:46 | 50.17503 | 13.76092 | 7405 ft | 274 kts | 64° |
| 2026-05-06 19:47 | 50.18319 | 13.78647 | 7286 ft | 261 kts | 65° |
| 2026-05-06 19:47 | 50.19119 | 13.81159 | 6994 ft | 256 kts | 65° |
| 2026-05-06 19:47 | 50.19908 | 13.83639 | 6634 ft | 255 kts | 65° |
| 2026-05-06 19:47 | 50.20692 | 13.86109 | 6278 ft | 253 kts | 65° |
| 2026-05-06 19:48 | 50.21460 | 13.88566 | 5880 ft | 251 kts | 69° |
| 2026-05-06 19:48 | 50.21751 | 13.91175 | 5531 ft | 245 kts | 92° |
| 2026-05-06 19:48 | 50.21674 | 13.93815 | 5165 ft | 242 kts | 94° |
| 2026-05-06 19:48 | 50.21573 | 13.96415 | 4860 ft | 233 kts | 94° |
| 2026-05-06 19:49 | 50.21468 | 13.98856 | 4737 ft | 219 kts | 95° |
| 2026-05-06 19:49 | 50.21356 | 14.01159 | 4599 ft | 208 kts | 99° |
| 2026-05-06 19:49 | 50.20838 | 14.03155 | 4506 ft | 197 kts | 122° |
| 2026-05-06 19:49 | 50.20128 | 14.05004 | 4244 ft | 195 kts | 122° |
| 2026-05-06 19:50 | 50.19395 | 14.06707 | 4002 ft | 183 kts | 126° |
| 2026-05-06 19:50 | 50.18662 | 14.08259 | 3756 ft | 174 kts | 127° |
| 2026-05-06 19:50 | 50.17943 | 14.09748 | 3534 ft | 171 kts | 127° |
| 2026-05-06 19:50 | 50.17226 | 14.11229 | 3307 ft | 172 kts | 126° |
| 2026-05-06 19:51 | 50.16520 | 14.12690 | 3122 ft | 163 kts | 126° |
| 2026-05-06 19:51 | 50.15857 | 14.14060 | 2890 ft | 154 kts | 125° |
| 2026-05-06 19:51 | 50.15214 | 14.15393 | 2675 ft | 153 kts | 124° |
| 2026-05-06 19:51 | 50.14577 | 14.16713 | 2475 ft | 152 kts | 125° |
| 2026-05-06 19:52 | 50.13940 | 14.18031 | 2268 ft | 151 kts | 125° |
| 2026-05-06 19:52 | 50.13513 | 14.18914 | 2133 ft | 151 kts | 125° |
| 2026-05-06 19:52 | 50.12883 | 14.20220 | 1915 ft | 150 kts | 125° |
| 2026-05-06 19:52 | 50.12262 | 14.21505 | 1705 ft | 147 kts | 126° |
| 2026-05-06 19:53 | 50.11640 | 14.22773 | 1508 ft | 147 kts | 124° |
| 2026-05-06 19:53 | 50.11034 | 14.24051 | 1299 ft | 145 kts | 126° |
| 2026-05-06 19:53 | 50.10440 | 14.25287 | 1172 ft | 136 kts | 126° |
| 2026-05-06 19:53 | 50.09977 | 14.26239 | 1195 ft | 77 kts | 127° |
| 2026-05-06 19:54 | 50.09869 | 14.26604 | 1206 ft | 22 kts | 82° |
| 2026-05-06 19:54 | 50.09893 | 14.26838 | 1205 ft | 22 kts | 82° |
| 2026-05-06 19:54 | 50.09911 | 14.27064 | 1203 ft | 13 kts | 84° |
| 2026-05-06 19:54 | 50.09918 | 14.27109 | 1201 ft | 6 kts | 59° |
| 2026-05-06 19:55 | 50.09959 | 14.27105 | 1198 ft | 8 kts | 313° |
| 2026-05-06 19:55 | 50.10006 | 14.27008 | 1195 ft | 14 kts | 304° |
| 2026-05-06 19:55 | 50.10077 | 14.26854 | 1187 ft | 21 kts | 307° |
| 2026-05-06 19:55 | 50.10176 | 14.26647 | 1176 ft | 25 kts | 308° |
| 2026-05-06 19:56 | 50.10278 | 14.26437 | 1176 ft | 23 kts | 307° |
| 2026-05-06 19:56 | 50.10374 | 14.26239 | 1175 ft | 23 kts | 307° |
| 2026-05-06 19:56 | 50.10435 | 14.26114 | 1174 ft | 9 kts | 307° |
| 2026-05-06 19:56 | 50.10453 | 14.26076 | 1175 ft | 0 kts | 307° |
| 2026-05-06 19:57 | 50.10453 | 14.26075 | 1175 ft | 0 kts | 307° |
| 2026-05-06 19:57 | 50.10476 | 14.26028 | 1175 ft | 12 kts | 307° |
| 2026-05-06 19:57 | 50.10534 | 14.25904 | 1173 ft | 15 kts | 304° |
| 2026-05-06 19:58 | 50.10596 | 14.25801 | 1172 ft | 10 kts | 356° |
| 2026-05-06 19:58 | 50.10658 | 14.25851 | 1172 ft | 10 kts | 36° |
| 2026-05-06 19:58 | 50.10714 | 14.25896 | 1173 ft | 8 kts | 358° |
| 2026-05-06 19:58 | 50.10753 | 14.25844 | 1172 ft | 7 kts | 305° |
| 2026-05-06 19:59 | 50.10760 | 14.25827 | 1171 ft | 0 kts | 304° |